Mt Bomar Mars — 9HCM9 — position and weather

sailwx.info

Track history (hours):
 
Tides and Currents Weather Stations Pressure Air Temp Water Temp Dewpoint Dewpoint Depression Visibility Wind Speed Wind Dir Waves Ship Positions

Mt Bomar Mars

Last reported at 2014-Nov-22 09:10 UTC. Time now 2014-Nov-24 15:15 UTC.
Position N 35°56' W 005°13'.

Length 107 m; draft 6.3 m.

Type: Tanker. MMSI: 256784000.

Date/timePositionNaut miles runAvg speedWind from/ knotsBaromVisibWave heightAir tempDewpointWater temp
2014-Nov-22 09:10N 35°56' W 005°13'5 8.5
2014-Nov-22 08:33N 35°54' W 005°19'0 0.3
2014-Nov-22 07:31N 35°54' W 005°19'0 0.0
2014-Nov-22 06:31N 35°54' W 005°19'0 0.0
2014-Nov-22 05:31N 35°54' W 005°19'0 0.0
2014-Nov-22 04:31N 35°54' W 005°19'0 0.0
2014-Nov-22 03:31N 35°54' W 005°19'0 0.0
2014-Nov-22 02:31N 35°54' W 005°19'0 0.0
2014-Nov-22 01:31N 35°54' W 005°19'1 1.5
2014-Nov-22 00:34N 35°55' W 005°18'1 0.7
2014-Nov-21 23:34N 35°55' W 005°19'7 6.8
2014-Nov-21 22:34N 35°57' W 005°27'236 8.4
2014-Nov-20 18:23N 37°38' W 009°54'  
2014-Nov-16 22:16N 49°34' W 000°14'912.5
2014-Nov-16 21:34N 49°30' W 000°02'8 7.8
2014-Nov-16 20:30N 49°29' E 000°10'3 2.6
2014-Nov-16 19:28N 49°28' E 000°15'0 0.0
2014-Nov-16 18:22N 49°28' E 000°15'0 0.0
2014-Nov-16 17:28N 49°28' E 000°15'0 0.0
2014-Nov-16 16:28N 49°28' E 000°15'0 0.0
2014-Nov-16 15:28N 49°28' E 000°15'0 0.0
2014-Nov-16 14:28N 49°28' E 000°15'0 0.0
2014-Nov-16 13:28N 49°28' E 000°15'0 0.0
2014-Nov-16 12:28N 49°28' E 000°15'0 0.0
2014-Nov-16 11:16N 49°28' E 000°15'0 0.0
2014-Nov-16 09:28N 49°28' E 000°15'0 0.0
2014-Nov-16 08:28N 49°28' E 000°15'0 0.0
2014-Nov-16 07:22N 49°28' E 000°15'0 0.0
2014-Nov-16 06:28N 49°28' E 000°15'0 0.0
2014-Nov-16 05:28N 49°28' E 000°15'0 0.0
2014-Nov-16 04:16N 49°28' E 000°15'0 0.0
2014-Nov-16 03:28N 49°28' E 000°15'0 0.0
2014-Nov-16 02:22N 49°28' E 000°15'0 0.0
2014-Nov-16 01:28N 49°28' E 000°15'0 0.0
2014-Nov-16 00:28N 49°28' E 000°15'0 0.0
2014-Nov-15 23:28N 49°28' E 000°15'0 0.0
2014-Nov-15 22:22N 49°28' E 000°15'0 0.0
2014-Nov-15 21:28N 49°28' E 000°15'0 0.0
2014-Nov-15 20:28N 49°28' E 000°15'0 0.0
2014-Nov-15 19:28N 49°28' E 000°15'3 3.0
2014-Nov-15 18:33N 49°29' E 000°10'2 1.8
2014-Nov-15 17:33N 49°28' E 000°08'10 9.9
2014-Nov-15 16:33N 49°32' W 000°07'5 5.3
2014-Nov-15 15:33N 49°34' W 000°14'3 3.2
2014-Nov-15 14:33N 49°37' W 000°12'74 9.2
2014-Nov-15 06:33N 50°41' E 000°44'3210.6
2014-Nov-15 03:32N 51°02' E 001°22'1111.4
2014-Nov-15 02:33N 51°09' E 001°36'1212.1
2014-Nov-15 01:34N 51°18' E 001°48'1212.4
2014-Nov-15 00:33N 51°29' E 001°59'7710.4
2014-Nov-14 17:10N 52°04' E 003°50'610.6
2014-Nov-14 16:33N 52°01' E 003°59'1212.3
2014-Nov-14 15:33N 51°54' E 004°16'1 1.1
2014-Nov-14 14:29N 51°53' E 004°17'0 0.0
2014-Nov-14 12:32N 51°53' E 004°17'0 0.0
2014-Nov-14 11:32N 51°53' E 004°17'0 0.0
2014-Nov-14 10:29N 51°53' E 004°17'0 0.0
2014-Nov-14 09:29N 51°53' E 004°17'0 0.0
2014-Nov-14 08:32N 51°53' E 004°17'0 0.0
2014-Nov-14 07:33N 51°53' E 004°17'0 0.0
2014-Nov-14 06:32N 51°53' E 004°17'0 0.0
2014-Nov-14 05:32N 51°53' E 004°17'0 0.0
2014-Nov-14 04:32N 51°53' E 004°17'0 0.0
2014-Nov-14 03:32N 51°53' E 004°17'0 0.0
2014-Nov-14 02:32N 51°53' E 004°17'0 0.0
2014-Nov-14 01:32N 51°53' E 004°17'0 0.0
2014-Nov-14 00:32N 51°53' E 004°17'0 0.0
2014-Nov-13 23:33N 51°53' E 004°17'0 0.0
2014-Nov-13 22:32N 51°53' E 004°17'0 0.0
2014-Nov-13 21:32N 51°53' E 004°17'0 0.0
2014-Nov-13 20:32N 51°53' E 004°17'0 0.0
2014-Nov-13 19:32N 51°53' E 004°17'1 0.7
2014-Nov-13 18:33N 51°53' E 004°18'1 0.5
2014-Nov-13 17:33N 51°53' E 004°18'0 0.0
2014-Nov-13 16:33N 51°53' E 004°18'0 0.0
2014-Nov-13 15:33N 51°53' E 004°18'0 0.0
2014-Nov-13 14:30N 51°53' E 004°18'0 0.0
2014-Nov-13 13:33N 51°53' E 004°18'0 0.0
2014-Nov-13 12:30N 51°53' E 004°18'0 0.0
2014-Nov-13 11:21N 51°53' E 004°18'0 0.0
2014-Nov-13 10:24N 51°53' E 004°18'0 0.0
2014-Nov-13 09:27N 51°53' E 004°18'0 0.0
2014-Nov-13 08:27N 51°53' E 004°18'0 0.0
2014-Nov-13 07:33N 51°53' E 004°18'0 0.0
2014-Nov-13 06:27N 51°53' E 004°18'0 0.0
2014-Nov-13 05:27N 51°53' E 004°18'0 0.0
2014-Nov-13 04:30N 51°53' E 004°18'0 0.0
2014-Nov-13 03:15N 51°53' E 004°18'0 0.0
2014-Nov-13 02:27N 51°53' E 004°18'0 0.0
2014-Nov-13 01:30N 51°53' E 004°18'0 0.0
2014-Nov-13 00:27N 51°53' E 004°18'0 0.0
2014-Nov-12 23:24N 51°53' E 004°18'0 0.0
2014-Nov-12 22:33N 51°53' E 004°18'0 0.0
2014-Nov-12 21:27N 51°53' E 004°18'0 0.0
2014-Nov-12 20:33N 51°53' E 004°18'0 0.0
2014-Nov-12 19:33N 51°53' E 004°18'0 0.0
2014-Nov-12 18:27N 51°53' E 004°18'0 0.2
2014-Nov-12 17:33N 51°53' E 004°18'9 9.5
2014-Nov-12 16:33N 51°59' E 004°06'  
Track history (hours):
 
Tides and Currents Weather Stations Pressure Air Temp Water Temp Dewpoint Dewpoint Depression Visibility Wind Speed Wind Dir Waves Ship Positions

Mt Bomar Mars

Last reported at 2014-Nov-22 09:10 UTC. Time now 2014-Nov-24 15:15 UTC.
Position N 35°56' W 005°13'.

Length 107 m; draft 6.3 m.

Type: Tanker. MMSI: 256784000.

Date/timePositionNaut miles runAvg speedWind from/ knotsBaromVisibWave heightAir tempDewpointWater temp
2014-Nov-22 09:10N 35°56' W 005°13'5 8.5
2014-Nov-22 08:33N 35°54' W 005°19'0 0.3
2014-Nov-22 07:31N 35°54' W 005°19'0 0.0
2014-Nov-22 06:31N 35°54' W 005°19'0 0.0
2014-Nov-22 05:31N 35°54' W 005°19'0 0.0
2014-Nov-22 04:31N 35°54' W 005°19'0 0.0
2014-Nov-22 03:31N 35°54' W 005°19'0 0.0
2014-Nov-22 02:31N 35°54' W 005°19'0 0.0
2014-Nov-22 01:31N 35°54' W 005°19'1 1.5
2014-Nov-22 00:34N 35°55' W 005°18'1 0.7
2014-Nov-21 23:34N 35°55' W 005°19'7 6.8
2014-Nov-21 22:34N 35°57' W 005°27'236 8.4
2014-Nov-20 18:23N 37°38' W 009°54'  
2014-Nov-16 22:16N 49°34' W 000°14'912.5
2014-Nov-16 21:34N 49°30' W 000°02'8 7.8
2014-Nov-16 20:30N 49°29' E 000°10'3 2.6
2014-Nov-16 19:28N 49°28' E 000°15'0 0.0
2014-Nov-16 18:22N 49°28' E 000°15'0 0.0
2014-Nov-16 17:28N 49°28' E 000°15'0 0.0
2014-Nov-16 16:28N 49°28' E 000°15'0 0.0
2014-Nov-16 15:28N 49°28' E 000°15'0 0.0
2014-Nov-16 14:28N 49°28' E 000°15'0 0.0
2014-Nov-16 13:28N 49°28' E 000°15'0 0.0
2014-Nov-16 12:28N 49°28' E 000°15'0 0.0
2014-Nov-16 11:16N 49°28' E 000°15'0 0.0
2014-Nov-16 09:28N 49°28' E 000°15'0 0.0
2014-Nov-16 08:28N 49°28' E 000°15'0 0.0
2014-Nov-16 07:22N 49°28' E 000°15'0 0.0
2014-Nov-16 06:28N 49°28' E 000°15'0 0.0
2014-Nov-16 05:28N 49°28' E 000°15'0 0.0
2014-Nov-16 04:16N 49°28' E 000°15'0 0.0
2014-Nov-16 03:28N 49°28' E 000°15'0 0.0
2014-Nov-16 02:22N 49°28' E 000°15'0 0.0
2014-Nov-16 01:28N 49°28' E 000°15'0 0.0
2014-Nov-16 00:28N 49°28' E 000°15'0 0.0
2014-Nov-15 23:28N 49°28' E 000°15'0 0.0
2014-Nov-15 22:22N 49°28' E 000°15'0 0.0
2014-Nov-15 21:28N 49°28' E 000°15'0 0.0
2014-Nov-15 20:28N 49°28' E 000°15'0 0.0
2014-Nov-15 19:28N 49°28' E 000°15'3 3.0
2014-Nov-15 18:33N 49°29' E 000°10'2 1.8
2014-Nov-15 17:33N 49°28' E 000°08'10 9.9
2014-Nov-15 16:33N 49°32' W 000°07'5 5.3
2014-Nov-15 15:33N 49°34' W 000°14'3 3.2
2014-Nov-15 14:33N 49°37' W 000°12'74 9.2
2014-Nov-15 06:33N 50°41' E 000°44'3210.6
2014-Nov-15 03:32N 51°02' E 001°22'1111.4
2014-Nov-15 02:33N 51°09' E 001°36'1212.1
2014-Nov-15 01:34N 51°18' E 001°48'1212.4
2014-Nov-15 00:33N 51°29' E 001°59'7710.4
2014-Nov-14 17:10N 52°04' E 003°50'610.6
2014-Nov-14 16:33N 52°01' E 003°59'1212.3
2014-Nov-14 15:33N 51°54' E 004°16'1 1.1
2014-Nov-14 14:29N 51°53' E 004°17'0 0.0
2014-Nov-14 12:32N 51°53' E 004°17'0 0.0
2014-Nov-14 11:32N 51°53' E 004°17'0 0.0
2014-Nov-14 10:29N 51°53' E 004°17'0 0.0
2014-Nov-14 09:29N 51°53' E 004°17'0 0.0
2014-Nov-14 08:32N 51°53' E 004°17'0 0.0
2014-Nov-14 07:33N 51°53' E 004°17'0 0.0
2014-Nov-14 06:32N 51°53' E 004°17'0 0.0
2014-Nov-14 05:32N 51°53' E 004°17'0 0.0
2014-Nov-14 04:32N 51°53' E 004°17'0 0.0
2014-Nov-14 03:32N 51°53' E 004°17'0 0.0
2014-Nov-14 02:32N 51°53' E 004°17'0 0.0
2014-Nov-14 01:32N 51°53' E 004°17'0 0.0
2014-Nov-14 00:32N 51°53' E 004°17'0 0.0
2014-Nov-13 23:33N 51°53' E 004°17'0 0.0
2014-Nov-13 22:32N 51°53' E 004°17'0 0.0
2014-Nov-13 21:32N 51°53' E 004°17'0 0.0
2014-Nov-13 20:32N 51°53' E 004°17'0 0.0
2014-Nov-13 19:32N 51°53' E 004°17'1 0.7
2014-Nov-13 18:33N 51°53' E 004°18'1 0.5
2014-Nov-13 17:33N 51°53' E 004°18'0 0.0
2014-Nov-13 16:33N 51°53' E 004°18'0 0.0
2014-Nov-13 15:33N 51°53' E 004°18'0 0.0
2014-Nov-13 14:30N 51°53' E 004°18'0 0.0
2014-Nov-13 13:33N 51°53' E 004°18'0 0.0
2014-Nov-13 12:30N 51°53' E 004°18'0 0.0
2014-Nov-13 11:21N 51°53' E 004°18'0 0.0
2014-Nov-13 10:24N 51°53' E 004°18'0 0.0
2014-Nov-13 09:27N 51°53' E 004°18'0 0.0
2014-Nov-13 08:27N 51°53' E 004°18'0 0.0
2014-Nov-13 07:33N 51°53' E 004°18'0 0.0
2014-Nov-13 06:27N 51°53' E 004°18'0 0.0
2014-Nov-13 05:27N 51°53' E 004°18'0 0.0
2014-Nov-13 04:30N 51°53' E 004°18'0 0.0
2014-Nov-13 03:15N 51°53' E 004°18'0 0.0
2014-Nov-13 02:27N 51°53' E 004°18'0 0.0
2014-Nov-13 01:30N 51°53' E 004°18'0 0.0
2014-Nov-13 00:27N 51°53' E 004°18'0 0.0
2014-Nov-12 23:24N 51°53' E 004°18'0 0.0
2014-Nov-12 22:33N 51°53' E 004°18'0 0.0
2014-Nov-12 21:27N 51°53' E 004°18'0 0.0
2014-Nov-12 20:33N 51°53' E 004°18'0 0.0
2014-Nov-12 19:33N 51°53' E 004°18'0 0.0
2014-Nov-12 18:27N 51°53' E 004°18'0 0.2
2014-Nov-12 17:33N 51°53' E 004°18'9 9.5
2014-Nov-12 16:33N 51°59' E 004°06'  

Dump ship's entire track history